Time;durP1;ratioP1;P1;durP2;ratioP2;P2;SDS_P1;SDS_P2;PMS_P1;PMS_P2;Temp;Humidity;BMP_temperature;BMP_pressure;BME280_temperature;BME280_humidity;BME280_pressure;Samples;Min_cycle;Max_cycle;Signal;HPM_P1;HPM_P2
2021/01/31 00:02:17;;;;;;;12.30;8.07;;;0.50;99.90;;;;;;4950625;28;20043;-68
2021/01/31 00:04:51;;;;;;;12.45;8.27;;;0.50;99.90;;;;;;4950793;28;20490;-68
2021/01/31 00:07:18;;;;;;;13.05;8.35;;;0.50;99.90;;;;;;4950054;28;20122;-68
2021/01/31 00:09:47;;;;;;;14.27;9.68;;;0.50;99.90;;;;;;4947293;28;20142;-68
2021/01/31 00:12:14;;;;;;;12.23;8.18;;;0.50;99.90;;;;;;4952021;28;20174;-68
2021/01/31 00:14:40;;;;;;;14.00;8.82;;;0.40;99.90;;;;;;4951128;28;20104;-67
2021/01/31 00:17:06;;;;;;;17.08;11.07;;;0.50;99.90;;;;;;4943911;28;20147;-68
2021/01/31 00:19:35;;;;;;;15.43;9.60;;;0.50;99.90;;;;;;4949155;28;20055;-68
2021/01/31 00:22:02;;;;;;;14.77;8.75;;;0.50;99.90;;;;;;4965335;28;20514;-68
2021/01/31 00:24:29;;;;;;;19.70;12.07;;;0.60;99.90;;;;;;4947830;28;20125;-68
2021/01/31 00:26:57;;;;;;;13.90;9.38;;;0.40;99.90;;;;;;4945178;29;20135;-67
2021/01/31 00:29:23;;;;;;;18.65;12.38;;;0.50;99.90;;;;;;4949748;28;20123;-68
2021/01/31 00:31:50;;;;;;;17.10;10.13;;;0.40;99.90;;;;;;4944837;28;20047;-68
2021/01/31 00:34:17;;;;;;;11.95;8.25;;;0.50;99.90;;;;;;4947951;28;20130;-67
2021/01/31 00:36:45;;;;;;;13.93;9.65;;;0.50;99.90;;;;;;4951803;28;20126;-68
2021/01/31 00:39:11;;;;;;;17.33;10.70;;;0.50;99.90;;;;;;4950878;28;20162;-67
2021/01/31 00:41:38;;;;;;;20.73;11.10;;;0.50;99.90;;;;;;4951686;28;20123;-68
2021/01/31 00:44:06;;;;;;;12.27;8.25;;;0.60;99.90;;;;;;4952206;28;20083;-67
2021/01/31 00:46:38;;;;;;;20.67;11.60;;;0.60;99.90;;;;;;4952278;28;20138;-68
2021/01/31 00:49:05;;;;;;;18.77;11.43;;;0.70;99.90;;;;;;4952750;28;20126;-68
2021/01/31 00:51:32;;;;;;;18.90;11.60;;;0.70;99.90;;;;;;4952004;28;20047;-68
2021/01/31 00:53:58;;;;;;;19.02;11.20;;;0.50;99.90;;;;;;4952768;28;20070;-68
2021/01/31 00:56:25;;;;;;;18.92;11.68;;;0.50;99.90;;;;;;4951577;29;20130;-67
2021/01/31 00:58:51;;;;;;;22.42;13.20;;;0.50;99.90;;;;;;4951404;28;20083;-67
2021/01/31 01:01:19;;;;;;;23.15;12.80;;;0.40;99.90;;;;;;4950128;28;20069;-69
2021/01/31 01:03:46;;;;;;;20.05;12.90;;;0.40;99.90;;;;;;4950395;28;20051;-68
2021/01/31 01:06:12;;;;;;;15.13;9.93;;;0.40;99.90;;;;;;4950177;28;20473;-68
2021/01/31 01:08:38;;;;;;;20.23;12.82;;;0.40;99.90;;;;;;4939453;29;20135;-68
2021/01/31 01:11:05;;;;;;;18.58;11.77;;;0.40;99.90;;;;;;4935883;29;20530;-68
2021/01/31 01:13:31;;;;;;;23.80;14.65;;;0.50;99.90;;;;;;4936094;29;20075;-68
2021/01/31 01:15:58;;;;;;;24.40;13.70;;;0.40;99.90;;;;;;4934029;28;20126;-68
2021/01/31 01:18:24;;;;;;;26.50;15.00;;;0.50;99.90;;;;;;4947638;29;20106;-68
2021/01/31 01:20:51;;;;;;;23.35;13.63;;;0.40;99.90;;;;;;4951677;28;20093;-69
2021/01/31 01:23:17;;;;;;;23.20;14.30;;;0.50;99.90;;;;;;4934807;28;20131;-69
2021/01/31 01:25:44;;;;;;;31.38;15.98;;;0.40;99.90;;;;;;4950855;29;20043;-68
2021/01/31 01:28:11;;;;;;;26.85;15.73;;;0.40;99.90;;;;;;4952119;28;20082;-68
2021/01/31 01:30:38;;;;;;;23.45;13.30;;;0.30;99.90;;;;;;4952149;28;20043;-68
2021/01/31 01:33:04;;;;;;;21.13;12.40;;;0.30;99.90;;;;;;4951500;28;20126;-67
2021/01/31 01:35:30;;;;;;;26.10;15.23;;;0.40;99.90;;;;;;4950590;29;20138;-67
2021/01/31 01:37:57;;;;;;;28.08;14.60;;;0.40;99.90;;;;;;4951807;28;20455;-67
2021/01/31 01:40:34;;;;;;;25.35;14.20;;;0.40;99.90;;;;;;4952217;28;20489;-68
2021/01/31 01:43:01;;;;;;;26.35;14.40;;;0.50;99.90;;;;;;4943146;28;20133;-68
2021/01/31 01:45:28;;;;;;;27.00;15.10;;;0.50;99.90;;;;;;4951079;28;20126;-68
2021/01/31 01:48:01;;;;;;;24.70;13.50;;;0.50;99.90;;;;;;4951878;28;20151;-68
2021/01/31 01:50:38;;;;;;;19.20;11.27;;;0.60;99.90;;;;;;4950996;28;20070;-67
2021/01/31 01:53:07;;;;;;;46.30;17.40;;;0.60;99.90;;;;;;4951202;28;20126;-67
2021/01/31 01:55:40;;;;;;;22.60;13.02;;;0.50;99.90;;;;;;4951460;28;20091;-67
2021/01/31 01:58:15;;;;;;;39.70;19.40;;;0.50;99.90;;;;;;4950866;29;20051;-67
2021/01/31 02:00:44;;;;;;;27.75;15.10;;;0.40;99.90;;;;;;4950804;28;20158;-67
2021/01/31 02:03:20;;;;;;;38.42;18.38;;;0.40;99.90;;;;;;4949849;28;20411;-68
2021/01/31 02:05:52;;;;;;;40.88;18.90;;;0.40;99.90;;;;;;4950263;29;20054;-67
2021/01/31 02:08:18;;;;;;;35.55;17.45;;;0.30;99.90;;;;;;4950654;28;20073;-67
2021/01/31 02:10:45;;;;;;;36.05;18.02;;;0.30;99.90;;;;;;4951021;28;20134;-67
2021/01/31 02:13:11;;;;;;;26.48;14.40;;;0.30;99.90;;;;;;4950322;28;20531;-68
2021/01/31 02:15:42;;;;;;;25.10;14.68;;;0.40;99.90;;;;;;4950267;28;20074;-67
2021/01/31 02:18:14;;;;;;;22.42;13.45;;;0.40;99.90;;;;;;4949890;28;20070;-67
2021/01/31 02:21:05;;;;;;;25.98;15.60;;;0.50;99.90;;;;;;4950310;28;20600;-67
2021/01/31 02:24:19;;;;;;;22.08;13.43;;;0.50;99.90;;;;;;4949629;28;20443;-67
2021/01/31 02:27:19;;;;;;;20.52;13.02;;;0.50;99.90;;;;;;4950539;28;20570;-67
2021/01/31 02:29:55;;;;;;;25.95;15.43;;;0.50;99.90;;;;;;4949115;29;20079;-67
2021/01/31 02:32:59;;;;;;;28.17;15.65;;;0.40;99.90;;;;;;4950686;28;20079;-68
2021/01/31 02:35:27;;;;;;;25.50;14.73;;;0.50;99.90;;;;;;4950098;28;20196;-67
2021/01/31 02:38:01;;;;;;;33.63;16.40;;;0.40;99.90;;;;;;4950372;28;20102;-67
2021/01/31 02:40:34;;;;;;;26.27;16.20;;;0.40;99.90;;;;;;4948966;28;20057;-68
2021/01/31 02:43:09;;;;;;;25.70;15.60;;;0.40;99.90;;;;;;4950419;28;20070;-66
2021/01/31 02:45:48;;;;;;;21.40;13.45;;;0.50;99.90;;;;;;4944687;29;20512;-69
2021/01/31 02:48:27;;;;;;;29.40;17.65;;;0.40;99.90;;;;;;4942199;28;20051;-68
2021/01/31 02:51:27;;;;;;;25.23;15.35;;;0.30;99.90;;;;;;4950048;29;20098;-68
2021/01/31 02:54:05;;;;;;;37.00;19.10;;;0.40;99.90;;;;;;4951058;28;20055;-68
2021/01/31 02:57:00;;;;;;;25.08;14.90;;;0.30;99.90;;;;;;4950538;28;20405;-68
2021/01/31 02:59:41;;;;;;;21.85;13.77;;;0.30;99.90;;;;;;4950288;28;20127;-69
2021/01/31 03:02:15;;;;;;;21.70;12.57;;;0.40;99.90;;;;;;4944168;28;20130;-68
2021/01/31 03:04:56;;;;;;;27.00;15.93;;;0.50;99.90;;;;;;4950794;28;20102;-69
2021/01/31 03:07:39;;;;;;;29.38;16.30;;;0.40;99.90;;;;;;4950047;28;20138;-67
2021/01/31 03:10:16;;;;;;;21.17;13.27;;;0.50;99.90;;;;;;4949375;28;20118;-69
2021/01/31 03:13:35;;;;;;;28.77;15.65;;;0.50;99.90;;;;;;4950351;28;20075;-68
2021/01/31 03:16:16;;;;;;;28.75;15.30;;;0.40;99.90;;;;;;4947219;29;20143;-68
2021/01/31 03:18:49;;;;;;;31.67;15.63;;;0.30;99.90;;;;;;4949742;28;20130;-68
2021/01/31 03:21:24;;;;;;;22.88;14.10;;;0.30;99.90;;;;;;4948783;28;20109;-68
2021/01/31 03:24:14;;;;;;;27.48;15.70;;;0.30;99.90;;;;;;4950148;28;20135;-68
2021/01/31 03:26:46;;;;;;;26.15;14.60;;;0.30;99.90;;;;;;4951724;28;20127;-68
2021/01/31 03:29:13;;;;;;;35.88;18.33;;;0.20;99.90;;;;;;4953655;28;20118;-69
2021/01/31 03:31:45;;;;;;;21.60;13.60;;;0.10;99.90;;;;;;4954040;28;20073;-68
2021/01/31 03:34:19;;;;;;;37.03;19.48;;;0.10;99.90;;;;;;4953906;28;20135;-69
2021/01/31 03:36:49;;;;;;;23.42;13.82;;;0.00;99.90;;;;;;4943341;28;20490;-68
2021/01/31 03:39:16;;;;;;;24.75;15.25;;;0.20;99.90;;;;;;4949782;29;20071;-69
2021/01/31 03:41:44;;;;;;;26.25;15.57;;;0.10;99.90;;;;;;4952820;29;20549;-69
2021/01/31 03:44:11;;;;;;;27.40;15.32;;;0.10;99.90;;;;;;4952471;28;20125;-69
2021/01/31 03:46:40;;;;;;;32.17;16.88;;;0.10;99.90;;;;;;4951630;29;20135;-68
2021/01/31 03:49:27;;;;;;;27.33;16.50;;;0.20;99.90;;;;;;4953256;28;20421;-68
2021/01/31 03:51:53;;;;;;;24.10;15.18;;;0.20;99.90;;;;;;4952992;28;20205;-68
2021/01/31 03:54:20;;;;;;;34.03;17.63;;;0.30;99.90;;;;;;4953528;28;20134;-69
2021/01/31 03:56:55;;;;;;;33.50;18.35;;;0.20;99.90;;;;;;4944286;28;20047;-68
2021/01/31 03:59:37;;;;;;;29.55;16.50;;;0.10;99.90;;;;;;4953511;28;20047;-69
2021/01/31 04:02:06;;;;;;;31.25;18.73;;;0.20;99.90;;;;;;4944304;29;20557;-68
2021/01/31 04:04:36;;;;;;;28.50;16.00;;;0.10;99.90;;;;;;4952526;28;20089;-69
2021/01/31 04:07:05;;;;;;;20.15;13.02;;;0.20;99.90;;;;;;4952410;29;20328;-69
2021/01/31 04:09:34;;;;;;;28.70;16.02;;;0.30;99.90;;;;;;4953243;28;20171;-69
2021/01/31 04:12:12;;;;;;;20.38;13.68;;;0.20;99.90;;;;;;4952945;28;20131;-69
2021/01/31 04:15:22;;;;;;;29.48;15.43;;;0.30;99.90;;;;;;4952450;29;20071;-70
2021/01/31 04:17:50;;;;;;;23.55;14.30;;;0.30;99.90;;;;;;4949478;28;20067;-69
2021/01/31 04:20:16;;;;;;;24.52;15.00;;;0.40;99.90;;;;;;4953177;28;20118;-69
2021/01/31 04:22:43;;;;;;;21.65;13.88;;;0.40;99.90;;;;;;4953389;28;20086;-69
2021/01/31 04:25:10;;;;;;;22.23;12.77;;;0.40;99.90;;;;;;4952483;28;20138;-69
2021/01/31 04:27:36;;;;;;;23.17;14.27;;;0.40;99.90;;;;;;4952856;28;20157;-69
2021/01/31 04:30:05;;;;;;;27.05;15.82;;;0.30;99.90;;;;;;4952836;28;20161;-69
2021/01/31 04:32:32;;;;;;;25.13;16.25;;;0.20;99.90;;;;;;4951261;28;20130;-69
2021/01/31 04:34:58;;;;;;;22.52;13.52;;;0.10;99.90;;;;;;4961675;28;20143;-69
2021/01/31 04:37:24;;;;;;;22.63;13.50;;;0.20;99.90;;;;;;4951306;28;20142;-69
2021/01/31 04:39:51;;;;;;;23.73;14.88;;;0.20;99.90;;;;;;4952719;28;20099;-69
2021/01/31 04:42:19;;;;;;;22.55;13.40;;;0.20;99.90;;;;;;4952321;28;20142;-69
2021/01/31 04:44:50;;;;;;;27.30;14.77;;;0.30;99.90;;;;;;4945430;28;20109;-69
2021/01/31 04:47:23;;;;;;;24.30;14.85;;;0.20;99.90;;;;;;4947693;29;20043;-69
2021/01/31 04:50:10;;;;;;;21.23;13.32;;;0.20;99.90;;;;;;4952025;28;20043;-69
2021/01/31 04:52:48;;;;;;;26.90;16.58;;;0.20;99.90;;;;;;4951407;29;20078;-69
2021/01/31 04:55:47;;;;;;;28.30;16.08;;;0.10;99.90;;;;;;4951582;28;20067;-69
2021/01/31 04:58:18;;;;;;;30.27;17.25;;;0.10;99.90;;;;;;4950679;28;20055;-69
2021/01/31 05:00:53;;;;;;;31.42;17.98;;;0.00;99.90;;;;;;4951783;28;20055;-69
2021/01/31 05:03:21;;;;;;;31.05;16.70;;;0.00;99.90;;;;;;4948418;28;20078;-69
2021/01/31 05:06:07;;;;;;;30.38;17.00;;;0.00;99.90;;;;;;4951639;28;20215;-69
2021/01/31 05:08:33;;;;;;;28.63;16.77;;;0.00;99.90;;;;;;4951275;28;20051;-68
2021/01/31 05:11:19;;;;;;;31.38;18.42;;;0.00;99.90;;;;;;4950180;28;20143;-69
2021/01/31 05:13:58;;;;;;;36.40;20.02;;;0.00;99.90;;;;;;4947251;29;20055;-69
2021/01/31 05:16:26;;;;;;;27.90;17.05;;;0.00;99.90;;;;;;4946865;29;20138;-68
2021/01/31 05:19:09;;;;;;;35.60;19.00;;;0.10;99.90;;;;;;4952455;28;20055;-68
2021/01/31 05:21:35;;;;;;;35.42;19.70;;;0.10;99.90;;;;;;4950593;29;20085;-69
2021/01/31 05:24:17;;;;;;;29.20;17.60;;;0.10;99.90;;;;;;4951032;28;20129;-69
2021/01/31 05:26:57;;;;;;;31.05;16.98;;;0.10;99.90;;;;;;4950960;28;20126;-68
2021/01/31 05:29:28;;;;;;;32.45;18.00;;;0.10;99.90;;;;;;4943378;29;20075;-69
2021/01/31 05:32:07;;;;;;;41.58;21.35;;;0.00;99.90;;;;;;4951758;28;20133;-69
2021/01/31 05:34:57;;;;;;;38.58;20.73;;;-0.10;99.90;;;;;;4952087;28;20150;-69
2021/01/31 05:37:26;;;;;;;38.05;20.83;;;0.10;99.90;;;;;;4948530;28;20185;-69
2021/01/31 05:40:07;;;;;;;31.17;16.42;;;0.00;99.90;;;;;;4952036;28;20486;-69
2021/01/31 05:42:44;;;;;;;42.08;22.38;;;0.10;99.90;;;;;;4942964;29;20110;-69
2021/01/31 05:45:32;;;;;;;36.50;21.70;;;-0.10;99.90;;;;;;4952106;28;20055;-69
2021/01/31 05:48:00;;;;;;;45.50;22.98;;;0.00;99.90;;;;;;4939359;29;20051;-69
2021/01/31 05:50:34;;;;;;;38.70;21.90;;;-0.10;99.90;;;;;;4950747;28;20133;-69
2021/01/31 05:53:19;;;;;;;;;;;-0.10;99.90;;;;;;4951486;28;20093;-69
2021/01/31 05:55:45;;;;;;;31.75;16.98;;;-0.10;99.90;;;;;;4951845;28;19938;-69
2021/01/31 05:58:23;;;;;;;42.75;22.67;;;0.00;99.90;;;;;;4951558;28;20075;-69
2021/01/31 06:01:14;;;;;;;36.80;19.45;;;0.00;99.90;;;;;;4950836;28;20498;-68
2021/01/31 06:03:40;;;;;;;37.75;19.70;;;0.00;99.90;;;;;;4951927;28;20498;-68
2021/01/31 06:06:21;;;;;;;43.03;22.50;;;0.00;99.90;;;;;;4951365;28;20043;-68
2021/01/31 06:08:50;;;;;;;41.10;21.83;;;0.00;99.90;;;;;;4951429;28;20138;-68
2021/01/31 06:11:27;;;;;;;38.47;20.70;;;0.00;99.90;;;;;;4951438;28;20043;-69
2021/01/31 06:14:21;;;;;;;37.85;21.15;;;0.10;99.90;;;;;;4940811;28;20437;-68
2021/01/31 06:16:47;;;;;;;45.20;23.60;;;0.00;99.90;;;;;;4950584;28;20099;-68
2021/01/31 06:19:27;;;;;;;44.72;22.85;;;0.00;99.90;;;;;;4951362;28;20082;-68
2021/01/31 06:21:53;;;;;;;38.97;20.38;;;0.00;99.90;;;;;;4934423;29;20135;-68
2021/01/31 06:24:38;;;;;;;48.50;23.17;;;0.00;99.90;;;;;;4936210;28;20067;-68
2021/01/31 06:27:05;;;;;;;44.33;23.75;;;0.00;99.90;;;;;;4951361;28;20416;-68
2021/01/31 06:30:06;;;;;;;48.42;22.23;;;-0.10;99.90;;;;;;4950808;28;20053;-69
2021/01/31 06:32:34;;;;;;;33.60;19.23;;;0.00;99.90;;;;;;4950600;28;20047;-68
2021/01/31 06:35:11;;;;;;;47.78;22.83;;;0.00;99.90;;;;;;4951484;28;20146;-69
2021/01/31 06:38:10;;;;;;;49.53;24.42;;;-0.10;99.90;;;;;;4950457;28;20489;-68
2021/01/31 06:41:12;;;;;;;34.80;19.35;;;-0.10;99.90;;;;;;4931549;29;20052;-68
2021/01/31 06:43:54;;;;;;;37.25;20.20;;;0.00;99.90;;;;;;4948782;28;20091;-67
2021/01/31 06:46:53;;;;;;;42.47;20.90;;;0.00;99.90;;;;;;4950640;29;20082;-68
2021/01/31 06:49:34;;;;;;;40.97;19.83;;;0.10;99.90;;;;;;4945227;29;20074;-67
2021/01/31 06:52:23;;;;;;;33.90;19.10;;;0.20;99.90;;;;;;4937476;28;20046;-67
2021/01/31 06:54:52;;;;;;;41.17;20.75;;;0.10;99.90;;;;;;4950910;29;20051;-67
2021/01/31 06:57:37;;;;;;;43.70;21.45;;;0.10;99.90;;;;;;4950827;28;20129;-67
2021/01/31 07:00:09;;;;;;;33.55;18.67;;;-0.10;99.90;;;;;;4947236;28;20052;-67
2021/01/31 07:02:55;;;;;;;33.00;17.67;;;0.00;99.90;;;;;;4940799;29;20130;-67
2021/01/31 07:05:36;;;;;;;39.65;21.10;;;0.00;99.90;;;;;;4954577;28;20061;-67
2021/01/31 07:08:38;;;;;;;38.67;20.20;;;0.10;99.90;;;;;;4954444;28;20081;-67
2021/01/31 07:11:16;;;;;;;38.00;19.52;;;0.10;99.90;;;;;;4951904;28;20047;-67
2021/01/31 07:14:06;;;;;;;46.22;22.23;;;0.00;99.90;;;;;;4950018;28;20063;-67
2021/01/31 07:16:40;;;;;;;45.13;21.65;;;-0.10;99.90;;;;;;4953147;28;20153;-68
2021/01/31 07:19:18;;;;;;;50.40;24.27;;;-0.10;99.90;;;;;;4954913;28;20081;-67
2021/01/31 07:21:59;;;;;;;53.08;24.65;;;-0.10;99.90;;;;;;4953782;29;20228;-67
2021/01/31 07:24:36;;;;;;;43.20;20.48;;;-0.10;99.90;;;;;;4937149;29;20486;-67
2021/01/31 07:27:34;;;;;;;38.75;19.92;;;-0.10;99.90;;;;;;4952756;28;20074;-67
2021/01/31 07:30:09;;;;;;;47.10;23.50;;;0.00;99.90;;;;;;4973620;28;20130;-67
2021/01/31 07:32:51;;;;;;;45.15;21.30;;;0.00;99.90;;;;;;4966598;28;20453;-68
2021/01/31 07:35:23;;;;;;;39.08;20.55;;;0.00;99.90;;;;;;4952680;28;20133;-68
2021/01/31 07:38:04;;;;;;;54.05;24.95;;;0.00;99.90;;;;;;4953768;28;20119;-67
2021/01/31 07:40:31;;;;;;;58.10;24.20;;;-0.20;99.90;;;;;;4935758;29;20138;-67
2021/01/31 07:42:59;;;;;;;50.75;25.02;;;-0.20;99.90;;;;;;4954255;28;20507;-68
2021/01/31 07:45:26;;;;;;;43.92;22.35;;;-0.20;99.90;;;;;;4952380;29;20588;-68
2021/01/31 07:48:31;;;;;;;52.88;23.77;;;-0.10;99.90;;;;;;4954146;28;20051;-68
2021/01/31 07:50:59;;;;;;;52.42;25.73;;;-0.20;99.90;;;;;;4954326;28;20118;-68
2021/01/31 07:53:32;;;;;;;55.20;25.55;;;-0.20;99.90;;;;;;4953670;28;20047;-68
2021/01/31 07:56:31;;;;;;;48.38;23.85;;;-0.20;99.90;;;;;;4957175;28;20057;-67
2021/01/31 07:59:18;;;;;;;50.10;24.77;;;-0.20;99.90;;;;;;4972191;28;20137;-67
2021/01/31 08:01:51;;;;;;;46.50;23.23;;;-0.30;99.90;;;;;;4955827;28;20514;-67
2021/01/31 08:04:18;;;;;;;40.75;22.30;;;-0.20;99.90;;;;;;4953516;28;20206;-68
2021/01/31 08:06:57;;;;;;;51.75;24.98;;;-0.20;99.90;;;;;;4953862;28;20187;-68
2021/01/31 08:09:24;;;;;;;44.70;22.65;;;-0.20;99.90;;;;;;4953148;28;20047;-68
2021/01/31 08:12:06;;;;;;;45.40;23.38;;;-0.20;99.90;;;;;;4952733;28;20071;-68
2021/01/31 08:15:17;;;;;;;44.97;23.17;;;-0.20;99.90;;;;;;4952789;28;20051;-68
2021/01/31 08:17:56;;;;;;;39.95;19.85;;;-0.10;99.90;;;;;;4951989;28;20486;-67
2021/01/31 08:20:28;;;;;;;41.20;21.65;;;0.00;99.90;;;;;;4946685;29;20528;-68
2021/01/31 08:22:58;;;;;;;42.90;22.73;;;0.00;99.90;;;;;;4940621;29;20160;-68
2021/01/31 08:25:53;;;;;;;38.00;19.73;;;0.00;99.90;;;;;;4953031;29;21068;-69
2021/01/31 08:28:34;;;;;;;43.00;22.90;;;0.00;99.90;;;;;;4952961;28;20074;-68
2021/01/31 08:31:14;;;;;;;38.92;20.77;;;0.00;99.90;;;;;;4949836;28;20071;-68
2021/01/31 08:33:41;;;;;;;45.22;23.42;;;0.10;99.90;;;;;;4949960;28;20550;-68
2021/01/31 08:36:23;;;;;;;42.03;23.38;;;0.10;99.90;;;;;;4953536;28;20467;-68
2021/01/31 08:38:52;;;;;;;45.10;22.88;;;0.20;99.90;;;;;;4953211;28;20143;-68
2021/01/31 08:41:18;;;;;;;41.10;20.70;;;0.20;99.90;;;;;;4952091;28;20071;-68
2021/01/31 08:43:47;;;;;;;42.88;21.60;;;0.20;99.90;;;;;;4953047;28;20059;-68
2021/01/31 08:46:16;;;;;;;44.30;22.77;;;0.20;99.90;;;;;;4957327;28;20042;-67
2021/01/31 08:48:55;;;;;;;46.10;24.10;;;0.20;99.90;;;;;;4947416;29;20151;-67
2021/01/31 08:51:24;;;;;;;53.95;24.85;;;0.10;99.90;;;;;;4950135;28;20134;-67
2021/01/31 08:54:13;;;;;;;50.70;24.55;;;0.10;99.90;;;;;;4951676;28;20083;-68
2021/01/31 08:56:59;;;;;;;51.42;26.27;;;0.00;99.90;;;;;;4952141;29;20445;-68
2021/01/31 08:59:37;;;;;;;52.58;26.75;;;0.00;99.90;;;;;;4952672;28;20138;-68
2021/01/31 09:02:18;;;;;;;52.15;24.90;;;-0.10;99.90;;;;;;4948373;29;20139;-68
2021/01/31 09:04:56;;;;;;;52.80;27.45;;;-0.10;99.90;;;;;;4951146;29;20098;-69
2021/01/31 09:07:33;;;;;;;39.47;20.02;;;0.00;99.90;;;;;;4950954;28;20517;-68
2021/01/31 09:10:29;;;;;;;43.58;22.70;;;0.00;99.90;;;;;;4951564;28;20466;-68
2021/01/31 09:13:07;;;;;;;51.20;24.02;;;0.10;99.90;;;;;;4951628;28;20135;-68
2021/01/31 09:15:34;;;;;;;53.47;25.88;;;0.10;99.90;;;;;;4951384;28;20569;-68
2021/01/31 09:18:26;;;;;;;43.40;22.30;;;0.10;99.90;;;;;;4951351;28;20578;-68
2021/01/31 09:20:53;;;;;;;45.30;23.42;;;0.20;99.90;;;;;;4945829;28;20169;-68
2021/01/31 09:23:33;;;;;;;35.90;19.90;;;0.30;99.90;;;;;;4951734;28;20135;-67
2021/01/31 09:26:03;;;;;;;40.53;22.23;;;0.30;99.90;;;;;;4933249;29;20055;-68
2021/01/31 09:28:31;;;;;;;47.58;24.80;;;0.20;99.90;;;;;;4932927;29;20050;-68
2021/01/31 09:31:02;;;;;;;36.42;21.10;;;0.10;99.90;;;;;;4933114;29;20048;-67
2021/01/31 09:33:38;;;;;;;39.45;21.77;;;0.20;99.90;;;;;;4946116;29;20043;-67
2021/01/31 09:36:19;;;;;;;45.75;24.95;;;0.10;99.90;;;;;;4950403;28;20065;-68
2021/01/31 09:38:47;;;;;;;40.35;22.08;;;0.20;99.90;;;;;;4939976;29;20082;-68
2021/01/31 09:41:16;;;;;;;40.03;20.02;;;0.40;99.90;;;;;;4952018;28;20130;-68
2021/01/31 09:43:45;;;;;;;53.60;25.45;;;0.50;99.90;;;;;;4951823;28;20446;-67
2021/01/31 09:46:15;;;;;;;46.13;23.92;;;0.40;99.90;;;;;;4951012;28;20047;-67
2021/01/31 09:48:43;;;;;;;39.25;21.15;;;0.50;99.90;;;;;;4951723;28;20078;-67
2021/01/31 09:51:23;;;;;;;38.50;20.02;;;0.70;99.90;;;;;;4947332;28;20086;-67
2021/01/31 09:53:49;;;;;;;34.60;19.38;;;0.70;99.90;;;;;;4946924;29;20418;-67
2021/01/31 09:56:34;;;;;;;38.40;20.58;;;0.90;99.90;;;;;;4951235;28;20047;-67
2021/01/31 09:59:01;;;;;;;33.80;19.05;;;1.00;99.90;;;;;;4951326;28;20062;-69
2021/01/31 10:01:29;;;;;;;43.38;22.30;;;1.00;99.90;;;;;;4948430;28;20506;-68
2021/01/31 10:04:05;;;;;;;31.20;17.08;;;0.80;99.90;;;;;;4939220;29;20051;-68
2021/01/31 10:06:47;;;;;;;35.53;18.92;;;0.90;99.90;;;;;;4942481;29;20070;-67
2021/01/31 10:09:28;;;;;;;48.05;24.23;;;1.00;99.90;;;;;;4933065;28;20673;-68
2021/01/31 10:12:28;;;;;;;48.83;22.95;;;1.00;99.90;;;;;;4933746;29;20183;-68
2021/01/31 10:15:05;;;;;;;46.20;21.92;;;1.00;99.90;;;;;;4945536;28;20044;-69
2021/01/31 10:17:37;;;;;;;42.90;21.77;;;0.90;99.90;;;;;;4940332;28;20157;-67
2021/01/31 10:20:26;;;;;;;42.00;20.60;;;1.00;99.90;;;;;;4938654;28;20521;-68
2021/01/31 10:22:54;;;;;;;44.85;20.38;;;1.00;99.90;;;;;;4949236;29;20047;-67
2021/01/31 10:25:21;;;;;;;60.80;24.63;;;1.10;99.90;;;;;;4941792;28;20052;-68
2021/01/31 10:27:48;;;;;;;49.38;24.55;;;1.10;99.90;;;;;;4953079;28;20157;-68
2021/01/31 10:30:41;;;;;;;50.75;24.52;;;0.90;99.90;;;;;;4947219;29;20039;-68
2021/01/31 10:33:28;;;;;;;55.67;25.08;;;1.00;99.90;;;;;;4952084;28;20419;-68
2021/01/31 10:35:55;;;;;;;49.75;25.05;;;0.80;99.90;;;;;;4950466;28;20150;-68
2021/01/31 10:38:31;;;;;;;46.63;23.95;;;1.00;99.90;;;;;;4946212;28;20153;-68
2021/01/31 10:40:59;;;;;;;47.10;23.05;;;1.10;99.90;;;;;;4950893;28;20074;-68
2021/01/31 10:43:27;;;;;;;56.03;24.50;;;1.10;99.90;;;;;;4950860;28;20082;-68
2021/01/31 10:45:54;;;;;;;48.60;24.08;;;1.00;99.90;;;;;;4950706;28;20476;-68
2021/01/31 10:48:20;;;;;;;50.20;25.30;;;0.90;99.90;;;;;;4949609;28;20114;-68
2021/01/31 10:50:46;;;;;;;41.40;21.50;;;0.80;99.90;;;;;;4949999;28;20141;-68
2021/01/31 10:53:12;;;;;;;47.05;24.30;;;0.90;99.90;;;;;;4950266;28;20039;-67
2021/01/31 10:55:39;;;;;;;50.00;23.83;;;0.90;99.90;;;;;;4949424;29;20488;-68
2021/01/31 10:58:05;;;;;;;116.53;57.40;;;1.00;99.90;;;;;;4948233;28;20110;-68
2021/01/31 11:00:32;;;;;;;45.22;25.00;;;1.00;99.90;;;;;;4950060;28;20118;-68
2021/01/31 11:02:58;;;;;;;48.70;22.45;;;1.00;99.90;;;;;;4949760;28;20134;-68
2021/01/31 11:05:24;;;;;;;100.88;58.08;;;1.10;99.90;;;;;;4947015;28;20134;-68
2021/01/31 11:07:52;;;;;;;47.58;23.45;;;1.00;99.90;;;;;;4948363;28;20043;-68
2021/01/31 11:10:18;;;;;;;42.13;23.17;;;1.10;99.90;;;;;;4950373;28;20205;-68
2021/01/31 11:12:45;;;;;;;42.53;22.25;;;1.10;99.90;;;;;;4949567;28;20050;-68
2021/01/31 11:15:12;;;;;;;44.45;24.40;;;1.20;99.90;;;;;;4950379;28;20471;-68
2021/01/31 11:17:39;;;;;;;38.13;20.98;;;1.10;99.90;;;;;;4939587;29;20479;-68
2021/01/31 11:20:07;;;;;;;43.30;22.52;;;1.30;99.90;;;;;;4942412;29;20082;-68
2021/01/31 11:22:34;;;;;;;42.97;23.23;;;1.20;99.90;;;;;;4964554;28;20047;-68
2021/01/31 11:25:00;;;;;;;47.70;25.95;;;1.20;99.90;;;;;;4946416;29;20047;-68
2021/01/31 11:27:26;;;;;;;46.15;25.88;;;1.20;99.90;;;;;;4946875;28;20522;-68
2021/01/31 11:29:53;;;;;;;49.28;24.17;;;1.20;99.90;;;;;;4948999;29;20052;-69
2021/01/31 11:32:19;;;;;;;46.42;25.33;;;1.20;99.90;;;;;;4937089;29;20124;-69
2021/01/31 11:34:45;;;;;;;51.45;26.65;;;1.00;99.90;;;;;;4947157;29;20061;-70
2021/01/31 11:37:12;;;;;;;52.42;25.65;;;0.80;99.90;;;;;;4950060;28;20055;-69
2021/01/31 11:39:39;;;;;;;55.17;27.15;;;0.90;99.90;;;;;;4949614;29;20055;-69
2021/01/31 11:42:05;;;;;;;52.78;26.25;;;0.90;99.90;;;;;;4951030;28;20135;-70
2021/01/31 11:44:32;;;;;;;100.15;61.65;;;1.00;99.90;;;;;;4949869;28;20130;-70
2021/01/31 11:46:58;;;;;;;47.28;26.73;;;1.10;99.90;;;;;;4951501;28;20090;-70
2021/01/31 11:49:25;;;;;;;77.35;26.00;;;1.20;99.90;;;;;;4953405;28;20051;-69
2021/01/31 11:51:51;;;;;;;64.07;28.73;;;1.30;99.90;;;;;;4952469;28;20047;-70
2021/01/31 11:54:17;;;;;;;62.72;31.33;;;1.10;99.90;;;;;;4953797;28;20046;-69
2021/01/31 11:56:44;;;;;;;49.60;23.67;;;1.00;99.90;;;;;;4952466;28;20126;-69
2021/01/31 11:59:10;;;;;;;54.67;25.30;;;1.20;99.90;;;;;;4953380;29;20062;-69
2021/01/31 12:01:40;;;;;;;50.03;25.60;;;1.20;99.90;;;;;;4953920;28;20422;-69
2021/01/31 12:04:07;;;;;;;64.18;28.00;;;1.10;99.90;;;;;;4956559;28;20584;-69
2021/01/31 12:06:33;;;;;;;77.70;30.55;;;1.00;99.90;;;;;;4952519;28;20570;-69
2021/01/31 12:09:00;;;;;;;41.78;23.15;;;0.90;99.90;;;;;;4952982;28;20199;-69
2021/01/31 12:11:28;;;;;;;58.88;26.77;;;1.00;99.90;;;;;;4953185;28;20403;-69
2021/01/31 12:13:55;;;;;;;81.82;32.28;;;0.90;99.90;;;;;;4952478;28;20557;-69
2021/01/31 12:16:22;;;;;;;54.42;27.55;;;0.80;99.90;;;;;;4951016;28;20581;-69
2021/01/31 12:18:48;;;;;;;65.90;28.30;;;1.00;99.90;;;;;;4946861;28;20467;-69
2021/01/31 12:21:15;;;;;;;85.15;28.63;;;1.10;99.90;;;;;;4952975;28;20130;-69
2021/01/31 12:23:42;;;;;;;45.85;24.25;;;1.10;99.90;;;;;;4952889;28;20082;-69
2021/01/31 12:26:09;;;;;;;51.83;24.88;;;1.20;99.90;;;;;;4953051;29;20130;-68
2021/01/31 12:28:35;;;;;;;70.45;29.75;;;1.20;99.90;;;;;;4951832;28;20053;-68
2021/01/31 12:31:02;;;;;;;66.43;28.05;;;1.10;99.90;;;;;;4953009;28;20094;-68
2021/01/31 12:33:28;;;;;;;66.13;28.27;;;1.00;99.90;;;;;;4952861;28;20085;-68
2021/01/31 12:35:54;;;;;;;56.00;27.13;;;1.00;99.90;;;;;;4952532;28;20085;-68
2021/01/31 12:38:21;;;;;;;69.70;31.48;;;1.10;99.90;;;;;;4952549;28;20122;-68
2021/01/31 12:40:48;;;;;;;57.97;27.83;;;1.00;99.90;;;;;;4951938;28;20097;-68
2021/01/31 12:43:14;;;;;;;47.13;25.40;;;1.00;99.90;;;;;;4947541;28;20091;-69
2021/01/31 12:45:40;;;;;;;42.17;24.40;;;1.20;99.90;;;;;;4948256;28;20182;-68
2021/01/31 12:48:07;;;;;;;67.18;30.02;;;1.20;99.90;;;;;;4938308;29;20131;-68
2021/01/31 12:50:33;;;;;;;56.65;27.23;;;1.20;99.90;;;;;;4949759;28;20538;-69
2021/01/31 12:53:01;;;;;;;47.63;24.45;;;1.10;99.90;;;;;;4950008;28;20087;-68
2021/01/31 12:55:28;;;;;;;43.72;23.88;;;1.20;99.90;;;;;;4952275;28;20047;-68
2021/01/31 12:57:54;;;;;;;46.70;25.25;;;1.30;99.90;;;;;;4950508;28;20075;-68
2021/01/31 13:00:22;;;;;;;53.20;26.65;;;1.30;99.90;;;;;;4940262;29;20083;-68
2021/01/31 13:02:48;;;;;;;58.95;26.90;;;1.40;99.90;;;;;;4937312;29;20058;-68
2021/01/31 13:05:18;;;;;;;40.53;21.55;;;1.30;99.90;;;;;;4948322;28;20063;-67
2021/01/31 13:07:44;;;;;;;56.13;25.75;;;1.40;99.90;;;;;;4959407;28;20078;-68
2021/01/31 13:10:11;;;;;;;59.80;26.63;;;1.40;99.90;;;;;;4949785;28;20090;-68